Página principal
METAR-TAF:

METAR-TAF

Aeroportos :

La Gomera, Espanha

latitude: 28-01-47N, longitude: 017-12-53W, altura: 218 m

Observação actual do tempo

O boletim foi feito há 32 minutos, às 10:30 UTC
Vento 4 kt de sul, variando entre su-sudeste e oes-sudoeste
Temperatura 23°C
Humidade 65%
Pressão 1017 hPa
Visibilidade 10 km ou mais
sem nuvens abaixo de 1500 metros e sem cumulonimbus

METAR: GCGM 191030Z 19004KT 150V250 CAVOK 23/16 Q1017 RMK R09/VRB03KT ARP/21004KT 150V260

Hora: 12:02 (11:02 UTC)

Previsão

O boletim foi feito há 3 horas e 2 minutos, às 08:00 UTC
Previsão válida de 19 às 09 UTC a 20 às 09 UTC
Vento 7 kt de sudoeste
Visibilidade 10 km ou mais
Poucas nuvensa uma altura de 2500 ft

TAF: GCGM 190800Z 1909/2009 22007KT 9999 FEW025 TX28/1914Z TN23/2006Z

Observações e previsões do tempo de mais de 4000 aeroportos (mensagens METAR e TAF).

As estações disponíveis são os pontos amarelos e vermelhos sobre o mapa.

Mova o rato sobre o mapa para ver o nome da estação.

Depois clique no ponto para visualizar as observações e previsões meteorológicas.

Para alterar o mapa : clique nos botões verdes com uma cruz preta para aumentar o zoom; no botão verde com uma pitada de zoom; ou nas setas verdes para mapas adjacentes.


METAR-TAF: